createdAt,value
2018-02-23T00:00:19.876Z,1022.00
2018-02-23T00:01:19.847Z,1022.07
2018-02-23T00:02:19.806Z,1022.08
2018-02-23T00:03:19.806Z,1022.08
2018-02-23T00:04:19.796Z,1022.08
2018-02-23T00:05:19.718Z,1022.12
2018-02-23T00:06:19.691Z,1022.14
2018-02-23T00:07:19.657Z,1022.13
2018-02-23T00:08:19.623Z,1022.14
2018-02-23T00:09:19.615Z,1022.16
2018-02-23T00:10:19.553Z,1022.19
2018-02-23T00:11:19.525Z,1022.17
2018-02-23T00:12:19.498Z,1022.14
2018-02-23T00:13:19.469Z,1022.12
2018-02-23T00:14:19.468Z,1022.10
2018-02-23T00:15:19.397Z,1022.03
2018-02-23T00:16:19.366Z,1022.10
2018-02-23T00:17:19.338Z,1022.07
2018-02-23T00:18:19.314Z,1022.06
2018-02-23T00:19:19.304Z,1022.07
2018-02-23T00:20:19.244Z,1022.01
2018-02-23T00:21:19.214Z,1022.02
2018-02-23T00:22:19.183Z,1022.00
2018-02-23T00:23:19.198Z,1021.99
2018-02-23T00:24:19.150Z,1022.00
2018-02-23T00:25:19.089Z,1022.01
2018-02-23T00:26:19.057Z,1022.04
2018-02-23T00:27:19.022Z,1022.00
2018-02-23T00:28:19.009Z,1021.99
2018-02-23T00:29:19.004Z,1021.99
2018-02-23T00:30:18.929Z,1021.99
2018-02-23T00:31:18.898Z,1021.96
2018-02-23T00:32:18.893Z,1021.95
2018-02-23T00:33:18.841Z,1021.95
2018-02-23T00:34:18.826Z,1021.96
2018-02-23T00:35:18.767Z,1021.95
2018-02-23T00:36:18.738Z,1021.96
2018-02-23T00:37:18.706Z,1021.98
2018-02-23T00:38:18.679Z,1021.98
2018-02-23T00:39:19.363Z,1021.98
2018-02-23T00:40:18.619Z,1022.01
2018-02-23T00:41:18.581Z,1021.98
2018-02-23T00:42:18.545Z,1021.95
2018-02-23T00:43:18.514Z,1021.96
2018-02-23T00:44:18.520Z,1022.01
2018-02-23T00:45:18.456Z,1022.00
2018-02-23T00:46:18.429Z,1021.98
2018-02-23T00:47:18.388Z,1021.97
2018-02-23T00:48:18.356Z,1021.97
2018-02-23T00:49:18.370Z,1021.98
2018-02-23T00:50:18.293Z,1021.98
2018-02-23T00:51:18.260Z,1022.00
2018-02-23T00:52:18.232Z,1021.95
2018-02-23T00:53:18.197Z,1022.02
2018-02-23T00:54:18.166Z,1022.00
2018-02-23T00:55:18.163Z,1021.98
2018-02-23T00:56:18.102Z,1021.97
2018-02-23T00:57:18.068Z,1021.96
2018-02-23T00:58:18.039Z,1021.95
2018-02-23T00:59:18.007Z,1021.97
2018-02-23T01:00:18.000Z,1021.99
2018-02-23T01:01:17.961Z,1022.00
2018-02-23T01:02:17.912Z,1021.96
2018-02-23T01:03:17.914Z,1021.98
2018-02-23T01:04:17.844Z,1021.97
2018-02-23T01:05:17.844Z,1021.94
2018-02-23T01:06:17.786Z,1021.90
2018-02-23T01:07:17.750Z,1021.92
2018-02-23T01:08:17.722Z,1021.88
2018-02-23T01:09:17.686Z,1021.90
2018-02-23T01:10:17.688Z,1021.87
2018-02-23T01:11:17.627Z,1021.88
2018-02-23T01:12:17.593Z,1021.87
2018-02-23T01:13:17.558Z,1021.86
2018-02-23T01:14:17.532Z,1021.83
2018-02-23T01:15:17.521Z,1021.90
2018-02-23T01:16:17.462Z,1021.92
2018-02-23T01:17:17.444Z,1021.88
2018-02-23T01:18:17.406Z,1021.85
2018-02-23T01:19:17.373Z,1021.89
2018-02-23T01:20:17.360Z,1021.87
2018-02-23T01:21:17.301Z,1021.88
2018-02-23T01:22:17.314Z,1021.92
2018-02-23T01:23:17.240Z,1021.90
2018-02-23T01:24:17.242Z,1021.87
2018-02-23T01:25:17.200Z,1021.90
2018-02-23T01:26:17.155Z,1021.89
2018-02-23T01:27:17.110Z,1021.81
2018-02-23T01:28:17.078Z,1021.83
2018-02-23T01:29:17.044Z,1021.82
2018-02-23T01:30:17.040Z,1021.84
2018-02-23T01:31:16.984Z,1021.83
2018-02-23T01:32:16.964Z,1021.86
2018-02-23T01:33:16.916Z,1021.83
2018-02-23T01:34:16.888Z,1021.84
2018-02-23T01:35:16.874Z,1021.85
2018-02-23T01:36:16.812Z,1021.84
2018-02-23T01:37:16.789Z,1021.85
2018-02-23T01:38:16.752Z,1021.85
2018-02-23T01:39:16.719Z,1021.88
2018-02-23T01:40:16.721Z,1021.86
2018-02-23T01:41:16.654Z,1021.85
2018-02-23T01:42:16.624Z,1021.87
2018-02-23T01:43:16.591Z,1021.88
2018-02-23T01:44:16.555Z,1021.88
2018-02-23T01:45:16.556Z,1021.88
2018-02-23T01:46:17.286Z,1021.89
2018-02-23T01:47:16.457Z,1021.89
2018-02-23T01:48:16.428Z,1021.90
2018-02-23T01:49:16.396Z,1021.88
2018-02-23T01:50:16.387Z,1021.87
2018-02-23T01:51:16.350Z,1021.84
2018-02-23T01:52:16.294Z,1021.86
2018-02-23T01:53:16.262Z,1021.82
2018-02-23T01:54:16.230Z,1021.82
2018-02-23T01:55:16.203Z,1021.81
2018-02-23T01:56:16.207Z,1021.84
2018-02-23T01:57:16.136Z,1021.80
2018-02-23T01:58:16.099Z,1021.79
2018-02-23T01:59:16.064Z,1021.78
2018-02-23T02:00:16.033Z,1021.79
2018-02-23T02:01:16.026Z,1021.77
2018-02-23T02:02:16.007Z,1021.73
2018-02-23T02:03:15.931Z,1021.72
2018-02-23T02:04:15.902Z,1021.75
2018-02-23T02:05:15.868Z,1021.76
2018-02-23T02:06:15.850Z,1021.73
2018-02-23T02:07:15.811Z,1021.70
2018-02-23T02:08:15.802Z,1021.72
2018-02-23T02:09:15.736Z,1021.71
2018-02-23T02:10:15.704Z,1021.73
2018-02-23T02:11:15.687Z,1021.73
2018-02-23T02:12:16.355Z,1021.75
2018-02-23T02:13:15.640Z,1021.74
2018-02-23T02:14:15.583Z,1021.67
2018-02-23T02:15:15.536Z,1021.69
2018-02-23T02:16:15.509Z,1021.69
2018-02-23T02:17:15.469Z,1021.69
2018-02-23T02:18:15.441Z,1021.60
2018-02-23T02:19:15.441Z,1021.68
2018-02-23T02:20:15.379Z,1021.67
2018-02-23T02:21:15.346Z,1021.68
2018-02-23T02:22:15.308Z,1021.68
2018-02-23T02:23:15.277Z,1021.68
2018-02-23T02:24:15.245Z,1021.70
2018-02-23T02:25:15.237Z,1021.70
2018-02-23T02:26:15.175Z,1021.66
2018-02-23T02:27:15.146Z,1021.69
2018-02-23T02:28:15.111Z,1021.62
2018-02-23T02:29:15.076Z,1021.61
2018-02-23T02:30:15.079Z,1021.62
2018-02-23T02:31:15.012Z,1021.60
2018-02-23T02:32:14.975Z,1021.60
2018-02-23T02:33:14.944Z,1021.61
2018-02-23T02:34:14.913Z,1021.62
2018-02-23T02:35:14.886Z,1021.60
2018-02-23T02:36:14.884Z,1021.65
2018-02-23T02:37:14.811Z,1021.61
2018-02-23T02:38:14.778Z,1021.62
2018-02-23T02:39:14.742Z,1021.63
2018-02-23T02:40:14.716Z,1021.63
2018-02-23T02:41:14.680Z,1021.64
2018-02-23T02:42:14.676Z,1021.69
2018-02-23T02:43:14.616Z,1021.68
2018-02-23T02:44:14.614Z,1021.68
2018-02-23T02:45:14.549Z,1021.70
2018-02-23T02:46:14.517Z,1021.66
2018-02-23T02:47:14.517Z,1021.69
2018-02-23T02:48:14.452Z,1021.69
2018-02-23T02:49:14.423Z,1021.63
2018-02-23T02:50:14.380Z,1021.67
2018-02-23T02:51:14.353Z,1021.67
2018-02-23T02:52:14.315Z,1021.67
2018-02-23T02:53:14.308Z,1021.70
2018-02-23T02:54:14.249Z,1021.71
2018-02-23T02:55:14.244Z,1021.66
2018-02-23T02:56:14.189Z,1021.68
2018-02-23T02:57:14.145Z,1021.62
2018-02-23T02:58:14.112Z,1021.65
2018-02-23T02:59:14.083Z,1021.62
2018-02-23T03:00:14.091Z,1021.60
2018-02-23T03:01:14.014Z,1021.59
2018-02-23T03:02:13.980Z,1021.57
2018-02-23T03:03:13.944Z,1021.58
2018-02-23T03:04:13.915Z,1021.56
2018-02-23T03:05:13.878Z,1021.55
2018-02-23T03:06:13.875Z,1021.56
2018-02-23T03:07:13.811Z,1021.58
2018-02-23T03:08:13.784Z,1021.57
2018-02-23T03:09:13.753Z,1021.58
2018-02-23T03:10:13.709Z,1021.64
2018-02-23T03:11:13.701Z,1021.61
2018-02-23T03:12:13.644Z,1021.63
2018-02-23T03:13:13.620Z,1021.66
2018-02-23T03:14:13.583Z,1021.66
2018-02-23T03:15:13.575Z,1021.62
2018-02-23T03:16:13.513Z,1021.61
2018-02-23T03:17:13.478Z,1021.63
2018-02-23T03:18:13.445Z,1021.54
2018-02-23T03:19:13.412Z,1021.59
2018-02-23T03:20:13.403Z,1021.57
2018-02-23T03:21:13.350Z,1021.54
2018-02-23T03:22:13.314Z,1021.58
2018-02-23T03:23:13.295Z,1021.58
2018-02-23T03:24:13.241Z,1021.59
2018-02-23T03:25:13.237Z,1021.57
2018-02-23T03:26:13.177Z,1021.60
2018-02-23T03:27:13.141Z,1021.57
2018-02-23T03:28:13.107Z,1021.54
2018-02-23T03:29:13.076Z,1021.52
2018-02-23T03:30:13.082Z,1021.51
2018-02-23T03:31:13.010Z,1021.52
2018-02-23T03:32:12.979Z,1021.51
2018-02-23T03:33:12.941Z,1021.53
2018-02-23T03:34:12.908Z,1021.57
2018-02-23T03:35:12.899Z,1021.57
2018-02-23T03:36:12.838Z,1021.60
2018-02-23T03:37:12.806Z,1021.64
2018-02-23T03:38:12.772Z,1021.67
2018-02-23T03:39:12.739Z,1021.72
2018-02-23T03:40:12.732Z,1021.72
2018-02-23T03:41:12.670Z,1021.71
2018-02-23T03:42:12.639Z,1021.70
2018-02-23T03:43:12.602Z,1021.73
2018-02-23T03:44:12.568Z,1021.72
2018-02-23T03:45:12.574Z,1021.73
2018-02-23T03:46:12.502Z,1021.74
2018-02-23T03:47:12.468Z,1021.77
2018-02-23T03:48:12.433Z,1021.79
2018-02-23T03:49:12.402Z,1021.78
2018-02-23T03:50:13.359Z,1021.77
2018-02-23T03:51:12.372Z,1021.85
2018-02-23T03:52:12.302Z,1021.82
2018-02-23T03:53:12.266Z,1021.86
2018-02-23T03:54:12.235Z,1021.87
2018-02-23T03:55:12.198Z,1021.90
2018-02-23T03:56:12.165Z,1021.88
2018-02-23T03:57:12.153Z,1021.92
2018-02-23T03:58:12.103Z,1021.90
2018-02-23T03:59:12.067Z,1021.90
2018-02-23T04:00:12.028Z,1021.93
2018-02-23T04:01:12.005Z,1021.95
2018-02-23T04:02:12.003Z,1021.91
2018-02-23T04:03:11.929Z,1021.89
2018-02-23T04:04:11.899Z,1021.84
2018-02-23T04:05:11.892Z,1021.85
2018-02-23T04:06:11.832Z,1021.87
2018-02-23T04:07:11.813Z,1021.88
2018-02-23T04:08:11.795Z,1021.89
2018-02-23T04:09:11.728Z,1021.87
2018-02-23T04:10:11.690Z,1021.87
2018-02-23T04:11:11.659Z,1021.87
2018-02-23T04:12:11.624Z,1021.85
2018-02-23T04:13:11.590Z,1021.85
2018-02-23T04:14:11.585Z,1021.86
2018-02-23T04:15:11.523Z,1021.82
2018-02-23T04:16:11.490Z,1021.81
2018-02-23T04:17:11.462Z,1021.85
2018-02-23T04:18:11.420Z,1021.87
2018-02-23T04:19:11.410Z,1021.87
2018-02-23T04:20:11.862Z,1021.87
2018-02-23T04:21:11.322Z,1021.86
2018-02-23T04:22:11.283Z,1021.85
2018-02-23T04:23:11.249Z,1021.87
2018-02-23T04:24:11.250Z,1021.87
2018-02-23T04:25:11.182Z,1021.85
2018-02-23T04:26:11.161Z,1021.85
2018-02-23T04:27:11.113Z,1021.88
2018-02-23T04:28:11.078Z,1021.84
2018-02-23T04:29:11.046Z,1021.86
2018-02-23T04:30:11.860Z,1021.86
2018-02-23T04:31:10.984Z,1021.87
2018-02-23T04:32:10.945Z,1021.85
2018-02-23T04:33:10.909Z,1021.85
2018-02-23T04:34:10.879Z,1021.86
2018-02-23T04:35:10.868Z,1021.87
2018-02-23T04:36:10.808Z,1021.87
2018-02-23T04:37:10.778Z,1021.87
2018-02-23T04:38:10.742Z,1021.89
2018-02-23T04:39:10.709Z,1021.86
2018-02-23T04:40:10.695Z,1021.93
2018-02-23T04:41:10.639Z,1021.90
2018-02-23T04:42:10.603Z,1021.86
2018-02-23T04:43:10.572Z,1021.92
2018-02-23T04:44:10.552Z,1021.93
2018-02-23T04:45:10.549Z,1021.95
2018-02-23T04:46:10.473Z,1021.94
2018-02-23T04:47:10.433Z,1021.95
2018-02-23T04:48:10.396Z,1021.93
2018-02-23T04:49:10.373Z,1021.92
2018-02-23T04:50:10.358Z,1021.94
2018-02-23T04:51:10.297Z,1021.94
2018-02-23T04:52:10.262Z,1021.91
2018-02-23T04:53:10.231Z,1021.96
2018-02-23T04:54:10.195Z,1021.95
2018-02-23T04:55:10.186Z,1021.91
2018-02-23T04:56:10.127Z,1021.93
2018-02-23T04:57:10.095Z,1021.99
2018-02-23T04:58:10.059Z,1021.96
2018-02-23T04:59:10.030Z,1021.92
2018-02-23T05:00:10.018Z,1021.94
2018-02-23T05:01:09.953Z,1021.95
2018-02-23T05:02:09.920Z,1021.98
2018-02-23T05:03:09.891Z,1022.00
2018-02-23T05:04:09.856Z,1022.02
2018-02-23T05:05:09.849Z,1022.04
2018-02-23T05:06:09.781Z,1022.00
2018-02-23T05:07:09.749Z,1022.01
2018-02-23T05:08:09.724Z,1022.06
2018-02-23T05:09:09.684Z,1022.04
2018-02-23T05:10:09.672Z,1022.06
2018-02-23T05:11:09.612Z,1022.07
2018-02-23T05:12:09.579Z,1022.08
2018-02-23T05:13:09.542Z,1022.10
2018-02-23T05:14:09.508Z,1022.08
2018-02-23T05:15:09.511Z,1022.07
2018-02-23T05:16:09.439Z,1022.09
2018-02-23T05:17:09.410Z,1022.12
2018-02-23T05:18:09.385Z,1022.07
2018-02-23T05:19:09.336Z,1022.07
2018-02-23T05:20:09.329Z,1022.06
2018-02-23T05:21:09.271Z,1022.04
2018-02-23T05:22:09.235Z,1022.09
2018-02-23T05:23:09.212Z,1022.03
2018-02-23T05:24:09.166Z,1022.07
2018-02-23T05:25:09.162Z,1022.10
2018-02-23T05:26:09.098Z,1022.10
2018-02-23T05:27:09.062Z,1022.14
2018-02-23T05:28:09.032Z,1022.14
2018-02-23T05:29:08.998Z,1022.13
2018-02-23T05:30:08.991Z,1022.14
2018-02-23T05:31:08.948Z,1022.08
2018-02-23T05:32:08.891Z,1022.10
2018-02-23T05:33:08.853Z,1022.10
2018-02-23T05:34:08.820Z,1022.15
2018-02-23T05:35:08.822Z,1022.13
2018-02-23T05:36:08.756Z,1022.11
2018-02-23T05:37:08.757Z,1022.15
2018-02-23T05:38:08.683Z,1022.10
2018-02-23T05:39:08.654Z,1022.10
2018-02-23T05:40:08.640Z,1022.11
2018-02-23T05:41:08.585Z,1022.09
2018-02-23T05:42:08.583Z,1022.07
2018-02-23T05:43:08.518Z,1022.09
2018-02-23T05:44:08.479Z,1022.11
2018-02-23T05:45:08.473Z,1022.12
2018-02-23T05:46:08.413Z,1022.11
2018-02-23T05:47:08.375Z,1022.10
2018-02-23T05:48:08.340Z,1022.13
2018-02-23T05:49:08.311Z,1022.10
2018-02-23T05:50:08.300Z,1022.13
2018-02-23T05:51:08.241Z,1022.10
2018-02-23T05:52:08.209Z,1022.12
2018-02-23T05:53:08.167Z,1022.06
2018-02-23T05:54:08.136Z,1022.07
2018-02-23T05:55:08.129Z,1022.06
2018-02-23T05:56:08.068Z,1022.06
2018-02-23T05:57:08.059Z,1022.13
2018-02-23T05:58:07.993Z,1022.13
2018-02-23T05:59:07.961Z,1022.15
2018-02-23T06:00:07.954Z,1022.17
2018-02-23T06:01:07.895Z,1022.16
2018-02-23T06:02:07.864Z,1022.18
2018-02-23T06:03:07.827Z,1022.23
2018-02-23T06:04:07.789Z,1022.24
2018-02-23T06:05:07.783Z,1022.24
2018-02-23T06:06:07.720Z,1022.26
2018-02-23T06:07:07.691Z,1022.26
2018-02-23T06:08:07.653Z,1022.32
2018-02-23T06:09:07.619Z,1022.31
2018-02-23T06:10:07.613Z,1022.30
2018-02-23T06:11:07.572Z,1022.32
2018-02-23T06:12:07.516Z,1022.31
2018-02-23T06:13:07.475Z,1022.29
2018-02-23T06:14:07.446Z,1022.32
2018-02-23T06:15:07.441Z,1022.32
2018-02-23T06:16:07.381Z,1022.38
2018-02-23T06:17:07.354Z,1022.36
2018-02-23T06:18:07.307Z,1022.34
2018-02-23T06:19:07.270Z,1022.34
2018-02-23T06:20:07.274Z,1022.37
2018-02-23T06:21:07.208Z,1022.42
2018-02-23T06:22:07.171Z,1022.43
2018-02-23T06:23:07.136Z,1022.43
2018-02-23T06:24:07.098Z,1022.45
2018-02-23T06:25:07.083Z,1022.45
2018-02-23T06:26:07.058Z,1022.44
2018-02-23T06:27:07.002Z,1022.57
2018-02-23T06:28:06.963Z,1022.53
2018-02-23T06:29:06.928Z,1022.57
2018-02-23T06:30:06.917Z,1022.55
2018-02-23T06:31:06.901Z,1022.57
2018-02-23T06:32:06.825Z,1022.60
2018-02-23T06:33:06.793Z,1022.59
2018-02-23T06:34:06.759Z,1022.60
2018-02-23T06:35:06.763Z,1022.63
2018-02-23T06:36:07.356Z,1022.62
2018-02-23T06:37:06.648Z,1022.60
2018-02-23T06:38:06.623Z,1022.61
2018-02-23T06:39:06.587Z,1022.64
2018-02-23T06:40:06.552Z,1022.71
2018-02-23T06:41:06.536Z,1022.70
2018-02-23T06:42:06.490Z,1022.72
2018-02-23T06:43:06.462Z,1022.73
2018-02-23T06:44:07.355Z,1022.73
2018-02-23T06:45:06.398Z,1022.70
2018-02-23T06:46:06.344Z,1022.72
2018-02-23T06:47:06.315Z,1022.71
2018-02-23T06:48:06.267Z,1022.75
2018-02-23T06:49:06.234Z,1022.74
2018-02-23T06:50:06.224Z,1022.79
2018-02-23T06:51:06.209Z,1022.72
2018-02-23T06:52:06.132Z,1022.73
2018-02-23T06:53:06.100Z,1022.76
2018-02-23T06:54:06.108Z,1022.79
2018-02-23T06:55:06.030Z,1022.86
2018-02-23T06:56:05.995Z,1022.79
2018-02-23T06:57:06.002Z,1022.86
2018-02-23T06:58:05.940Z,1022.88
2018-02-23T06:59:05.895Z,1022.87
2018-02-23T07:00:05.866Z,1022.82
2018-02-23T07:01:05.829Z,1022.85
2018-02-23T07:02:05.789Z,1022.81
2018-02-23T07:03:05.781Z,1022.79
2018-02-23T07:04:05.723Z,1022.73
2018-02-23T07:05:05.692Z,1022.77
2018-02-23T07:06:05.657Z,1022.76
2018-02-23T07:07:05.642Z,1022.77
2018-02-23T07:08:05.624Z,1022.78
2018-02-23T07:09:05.547Z,1022.81
2018-02-23T07:10:05.557Z,1022.77
2018-02-23T07:11:05.488Z,1022.80
2018-02-23T07:12:05.452Z,1022.80
2018-02-23T07:13:05.415Z,1022.86
2018-02-23T07:14:05.423Z,1022.87
2018-02-23T07:15:05.351Z,1022.88
2018-02-23T07:16:05.306Z,1022.88
2018-02-23T07:17:05.280Z,1022.91
2018-02-23T07:18:05.246Z,1022.94
2018-02-23T07:19:05.210Z,1022.93
2018-02-23T07:20:05.198Z,1022.93
2018-02-23T07:21:05.143Z,1022.96
2018-02-23T07:22:05.111Z,1022.94
2018-02-23T07:23:05.074Z,1022.97
2018-02-23T07:24:05.043Z,1022.98
2018-02-23T07:25:05.053Z,1023.00
2018-02-23T07:26:04.967Z,1023.01
2018-02-23T07:27:04.934Z,1023.04
2018-02-23T07:28:04.904Z,1023.06
2018-02-23T07:29:04.875Z,1023.09
2018-02-23T07:30:04.834Z,1023.04
2018-02-23T07:31:04.905Z,1023.07
2018-02-23T07:32:04.763Z,1023.06
2018-02-23T07:33:04.733Z,1023.08
2018-02-23T07:34:04.698Z,1023.04
2018-02-23T07:35:04.667Z,1022.99
2018-02-23T07:36:04.657Z,1023.05
2018-02-23T07:37:04.642Z,1023.07
2018-02-23T07:38:04.562Z,1023.08
2018-02-23T07:39:04.537Z,1023.00
2018-02-23T07:40:04.493Z,1023.07
2018-02-23T07:41:04.487Z,1023.02
2018-02-23T07:42:04.428Z,1023.08
2018-02-23T07:43:04.416Z,1023.10
2018-02-23T07:44:04.364Z,1023.12
2018-02-23T07:45:04.366Z,1023.10
2018-02-23T07:46:04.303Z,1023.08
2018-02-23T07:47:04.295Z,1023.10
2018-02-23T07:48:04.223Z,1023.12
2018-02-23T07:49:04.196Z,1023.11
2018-02-23T07:50:04.164Z,1023.16
2018-02-23T07:51:04.858Z,1023.10
2018-02-23T07:52:04.098Z,1023.16
2018-02-23T07:53:04.091Z,1023.16
2018-02-23T07:54:04.025Z,1023.19
2018-02-23T07:55:04.018Z,1023.21
2018-02-23T07:56:03.958Z,1023.20
2018-02-23T07:57:03.923Z,1023.23
2018-02-23T07:58:03.889Z,1023.26
2018-02-23T07:59:03.863Z,1023.28
2018-02-23T08:00:03.860Z,1023.32
2018-02-23T08:01:03.863Z,1023.31
2018-02-23T08:02:03.754Z,1023.31
2018-02-23T08:03:03.728Z,1023.29
2018-02-23T08:04:03.716Z,1023.34
2018-02-23T08:05:03.660Z,1023.35
2018-02-23T08:06:03.700Z,1023.33
2018-02-23T08:07:03.593Z,1023.33
2018-02-23T08:08:03.564Z,1023.34
2018-02-23T08:09:03.537Z,1023.41
2018-02-23T08:10:03.496Z,1023.39
2018-02-23T08:11:03.495Z,1023.40
2018-02-23T08:12:03.428Z,1023.38
2018-02-23T08:13:03.395Z,1023.50
2018-02-23T08:14:03.362Z,1023.41
2018-02-23T08:15:03.351Z,1023.44
2018-02-23T08:16:03.339Z,1023.53
2018-02-23T08:17:03.271Z,1023.44
2018-02-23T08:18:03.243Z,1023.53
2018-02-23T08:19:03.204Z,1023.55
2018-02-23T08:20:03.201Z,1023.56
2018-02-23T08:21:03.143Z,1023.54
2018-02-23T08:22:03.118Z,1023.54
2018-02-23T08:23:03.088Z,1023.55
2018-02-23T08:24:03.060Z,1023.51
2018-02-23T08:25:03.063Z,1023.52
2018-02-23T08:26:02.996Z,1023.50
2018-02-23T08:27:02.977Z,1023.50
2018-02-23T08:28:02.940Z,1023.54
2018-02-23T08:29:02.917Z,1023.59
2018-02-23T08:30:02.889Z,1023.58
2018-02-23T08:31:02.877Z,1023.58
2018-02-23T08:32:02.825Z,1023.49
2018-02-23T08:33:02.800Z,1023.61
2018-02-23T08:34:02.775Z,1023.62
2018-02-23T08:35:02.749Z,1023.66
2018-02-23T08:36:02.746Z,1023.64
2018-02-23T08:37:02.695Z,1023.61
2018-02-23T08:38:02.667Z,1023.68
2018-02-23T08:39:02.642Z,1023.61
2018-02-23T08:40:02.615Z,1023.60
2018-02-23T08:41:02.619Z,1023.64
2018-02-23T08:42:02.566Z,1023.68
2018-02-23T08:43:02.552Z,1023.70
2018-02-23T08:44:02.518Z,1023.71
2018-02-23T08:45:02.489Z,1023.77
2018-02-23T08:46:02.499Z,1023.80
2018-02-23T08:47:02.452Z,1023.69
2018-02-23T08:48:02.424Z,1023.71
2018-02-23T08:49:02.399Z,1023.71
2018-02-23T08:50:02.379Z,1023.69
2018-02-23T08:51:02.420Z,1023.70
2018-02-23T08:52:02.330Z,1023.74
2018-02-23T08:53:02.358Z,1023.74
2018-02-23T08:54:02.284Z,1023.78
2018-02-23T08:55:02.291Z,1023.74
2018-02-23T08:56:02.244Z,1023.70
2018-02-23T08:57:02.220Z,1023.72
2018-02-23T08:58:02.194Z,1023.76
2018-02-23T08:59:02.177Z,1023.80
2018-02-23T09:00:02.191Z,1023.78
2018-02-23T09:01:02.144Z,1023.79
2018-02-23T09:02:02.109Z,1023.82
2018-02-23T09:03:02.090Z,1023.86
2018-02-23T09:04:02.075Z,1023.88
2018-02-23T09:05:02.074Z,1023.89
2018-02-23T09:06:02.024Z,1023.92
2018-02-23T09:07:02.005Z,1023.95
2018-02-23T09:08:01.990Z,1023.94
2018-02-23T09:09:01.973Z,1023.98
2018-02-23T09:10:01.975Z,1024.04
2018-02-23T09:11:01.925Z,1024.05
2018-02-23T09:12:01.906Z,1023.97
2018-02-23T09:13:01.892Z,1023.98
2018-02-23T09:14:01.882Z,1023.96
2018-02-23T09:15:01.917Z,1023.93
2018-02-23T09:16:01.833Z,1023.95
2018-02-23T09:17:01.813Z,1024.01
2018-02-23T09:18:01.793Z,1023.97
2018-02-23T09:19:01.776Z,1023.99
2018-02-23T09:20:01.776Z,1023.98
2018-02-23T09:21:01.732Z,1023.98
2018-02-23T09:22:01.764Z,1024.02
2018-02-23T09:23:01.694Z,1024.04
2018-02-23T09:24:01.677Z,1023.98
2018-02-23T09:25:01.684Z,1023.98
2018-02-23T09:26:01.633Z,1023.99
2018-02-23T09:27:01.628Z,1023.96
2018-02-23T09:28:01.606Z,1024.05
2018-02-23T09:29:01.577Z,1024.06
2018-02-23T09:30:01.643Z,1024.12
2018-02-23T09:31:01.541Z,1024.11
2018-02-23T09:32:01.516Z,1024.09
2018-02-23T09:33:01.498Z,1024.10
2018-02-23T09:34:01.485Z,1024.09
2018-02-23T09:35:01.492Z,1024.05
2018-02-23T09:36:01.440Z,1024.14
2018-02-23T09:37:01.420Z,1024.09
2018-02-23T09:38:01.392Z,1024.13
2018-02-23T09:39:01.383Z,1024.16
2018-02-23T09:40:01.386Z,1024.23
2018-02-23T09:41:01.335Z,1024.13
2018-02-23T09:42:01.313Z,1024.18
2018-02-23T09:43:01.291Z,1024.09
2018-02-23T09:44:01.274Z,1024.14
2018-02-23T09:45:01.272Z,1024.17
2018-02-23T09:46:01.227Z,1024.02
2018-02-23T09:47:01.204Z,1024.12
2018-02-23T09:48:01.179Z,1024.06
2018-02-23T09:49:01.157Z,1024.11
2018-02-23T09:50:01.158Z,1024.11
2018-02-23T09:51:01.155Z,1024.07
2018-02-23T09:52:01.093Z,1024.09
2018-02-23T09:53:01.086Z,1024.13
2018-02-23T09:54:01.048Z,1024.09
2018-02-23T09:55:01.022Z,1024.09
2018-02-23T09:56:01.028Z,1024.07
2018-02-23T09:57:00.982Z,1024.15
2018-02-23T09:58:00.975Z,1024.07
2018-02-23T09:59:00.938Z,1024.09
2018-02-23T10:00:00.946Z,1024.14
2018-02-23T10:01:00.923Z,1024.07
2018-02-23T10:02:00.874Z,1024.14
2018-02-23T10:03:00.859Z,1024.12
2018-02-23T10:04:00.829Z,1024.14
2018-02-23T10:05:00.819Z,1024.10
2018-02-23T10:06:00.814Z,1024.03
2018-02-23T10:07:00.770Z,1024.02
2018-02-23T10:08:00.752Z,1024.14
2018-02-23T10:09:00.878Z,1024.12
2018-02-23T10:10:00.711Z,1024.08
2018-02-23T10:11:00.776Z,1024.10
2018-02-23T10:12:00.675Z,1024.14
2018-02-23T10:13:00.685Z,1024.11
2018-02-23T10:14:00.655Z,1024.09
2018-02-23T10:15:00.712Z,1024.15
2018-02-23T10:16:00.647Z,1024.12
2018-02-23T10:17:00.584Z,1024.07
2018-02-23T10:18:00.584Z,1024.10
2018-02-23T10:19:00.555Z,1024.08
2018-02-23T10:20:00.532Z,1024.12
2018-02-23T10:21:00.548Z,1024.04
2018-02-23T10:22:00.498Z,1024.07
2018-02-23T10:23:00.481Z,1024.05
2018-02-23T10:24:00.462Z,1024.02
2018-02-23T10:25:00.444Z,1024.04
2018-02-23T10:26:00.461Z,1024.04
2018-02-23T10:27:00.419Z,1024.08
2018-02-23T10:28:00.401Z,1024.10
2018-02-23T10:29:00.378Z,1024.05
2018-02-23T10:30:00.366Z,1024.04
2018-02-23T10:31:00.370Z,1024.00
2018-02-23T10:32:00.336Z,1024.02
2018-02-23T10:33:00.307Z,1024.02
2018-02-23T10:34:00.302Z,1024.01
2018-02-23T10:35:00.279Z,1024.02
2018-02-23T10:36:00.352Z,1024.03
2018-02-23T10:37:00.248Z,1024.05
2018-02-23T10:38:00.295Z,1024.02
2018-02-23T10:39:00.218Z,1023.98
2018-02-23T10:40:00.199Z,1023.98
2018-02-23T10:41:00.206Z,1023.97
2018-02-23T10:42:00.169Z,1023.98
2018-02-23T10:43:00.159Z,1024.00
2018-02-23T10:44:00.142Z,1023.97
2018-02-23T10:45:00.125Z,1023.98
2018-02-23T10:46:00.143Z,1023.99
2018-02-23T10:47:00.101Z,1024.08
2018-02-23T10:48:00.892Z,1024.00
2018-02-23T10:49:00.066Z,1024.00
2018-02-23T10:50:00.158Z,1023.98
2018-02-23T10:51:00.062Z,1023.97
2018-02-23T10:52:00.033Z,1023.98
2018-02-23T10:53:00.010Z,1023.99
2018-02-23T10:54:00.032Z,1024.02
2018-02-23T10:55:00.004Z,1024.01
2018-02-23T10:55:59.961Z,1024.02
2018-02-23T10:56:59.945Z,1024.02
2018-02-23T10:57:59.974Z,1024.02
2018-02-23T10:58:59.920Z,1024.01
2018-02-23T10:59:59.934Z,1024.06
2018-02-23T11:00:59.896Z,1024.09
2018-02-23T11:01:59.872Z,1024.03
2018-02-23T11:02:59.889Z,1024.01
2018-02-23T11:03:59.859Z,1024.00
2018-02-23T11:04:59.856Z,1024.06
2018-02-23T11:05:59.824Z,1024.03
2018-02-23T11:06:59.818Z,1024.06
2018-02-23T11:08:00.397Z,1024.05
2018-02-23T11:08:59.778Z,1024.06
2018-02-23T11:09:59.789Z,1024.02
2018-02-23T11:10:59.743Z,1023.98
2018-02-23T11:11:59.761Z,1023.97
2018-02-23T11:12:59.725Z,1024.07
2018-02-23T11:13:59.703Z,1024.01
2018-02-23T11:14:59.734Z,1023.95
2018-02-23T11:15:59.678Z,1023.96
2018-02-23T11:16:59.665Z,1023.98
2018-02-23T11:17:59.710Z,1023.96
2018-02-23T11:18:59.645Z,1023.87
2018-02-23T11:19:59.645Z,1023.89
2018-02-23T11:20:59.601Z,1023.87
2018-02-23T11:21:59.593Z,1023.91
2018-02-23T11:22:59.576Z,1023.80
2018-02-23T11:23:59.561Z,1023.82
2018-02-23T11:24:59.609Z,1023.78
2018-02-23T11:25:59.535Z,1023.80
2018-02-23T11:26:59.520Z,1023.82
2018-02-23T11:27:59.534Z,1023.79
2018-02-23T11:28:59.492Z,1023.76
2018-02-23T11:29:59.506Z,1023.74
2018-02-23T11:30:59.530Z,1023.76
2018-02-23T11:31:59.475Z,1023.80
2018-02-23T11:32:59.453Z,1023.77
2018-02-23T11:33:59.422Z,1023.73
2018-02-23T11:34:59.509Z,1023.74
2018-02-23T11:35:59.396Z,1023.74
2018-02-23T11:36:59.383Z,1023.72
2018-02-23T11:37:59.411Z,1023.72
2018-02-23T11:38:59.369Z,1023.69
2018-02-23T11:39:59.377Z,1023.72
2018-02-23T11:40:59.335Z,1023.78
2018-02-23T11:41:59.327Z,1023.77
2018-02-23T11:42:59.333Z,1023.74
2018-02-23T11:43:59.296Z,1023.75
2018-02-23T11:44:59.320Z,1023.80
2018-02-23T11:45:59.277Z,1023.73
2018-02-23T11:46:59.261Z,1023.78
2018-02-23T11:47:59.268Z,1023.75
2018-02-23T11:48:59.245Z,1023.73
2018-02-23T11:49:59.268Z,1023.78
2018-02-23T11:50:59.244Z,1023.80
2018-02-23T11:51:59.218Z,1023.81
2018-02-23T11:52:59.191Z,1023.85
2018-02-23T11:53:59.186Z,1023.79
2018-02-23T11:54:59.171Z,1023.78
2018-02-23T11:55:59.193Z,1023.80
2018-02-23T11:56:59.151Z,1023.80
2018-02-23T11:57:59.182Z,1023.78
2018-02-23T11:58:59.129Z,1023.83
2018-02-23T11:59:59.124Z,1023.76
2018-02-23T12:00:59.124Z,1023.71
2018-02-23T12:01:59.089Z,1023.76
2018-02-23T12:02:59.077Z,1023.77
2018-02-23T12:03:59.064Z,1023.76
2018-02-23T12:04:59.059Z,1023.76